Time;durP1;ratioP1;P1;durP2;ratioP2;P2;SDS_P1;SDS_P2;PMS_P1;PMS_P2;Temp;Humidity;BMP_temperature;BMP_pressure;BME280_temperature;BME280_humidity;BME280_pressure;Samples;Min_cycle;Max_cycle;Signal;HPM_P1;HPM_P2
2024/02/14 00:00:32;;;;;;;1.58;1.10;;;;;;;7.42;100.00;101297.53;6278517;28;20055;-84
2024/02/14 00:03:33;;;;;;;5.47;1.45;;;;;;;7.46;100.00;101295.69;6278249;28;20049;-84
2024/02/14 00:06:36;;;;;;;2.90;1.50;;;;;;;7.45;100.00;101284.38;6278550;28;20441;-84
2024/02/14 00:09:37;;;;;;;1.58;1.23;;;;;;;7.42;100.00;101294.06;6277399;28;20060;-84
2024/02/14 00:12:38;;;;;;;1.67;1.08;;;;;;;7.43;100.00;101287.94;6278072;28;20049;-85
2024/02/14 00:15:41;;;;;;;2.75;1.17;;;;;;;7.46;100.00;101286.09;6278010;28;20342;-84
2024/02/14 00:18:43;;;;;;;2.30;1.27;;;;;;;7.52;100.00;101282.41;6277583;28;20425;-84
2024/02/14 00:21:44;;;;;;;5.95;1.25;;;;;;;7.50;100.00;101271.16;6278211;28;20048;-85
2024/02/14 00:24:45;;;;;;;2.85;1.10;;;;;;;7.55;100.00;101272.72;6277601;28;20057;-84
2024/02/14 00:27:47;;;;;;;3.13;1.42;;;;;;;7.55;100.00;101259.63;6277084;28;20456;-85
2024/02/14 00:30:50;;;;;;;4.00;1.60;;;;;;;7.51;100.00;101262.41;6277577;28;20049;-84
2024/02/14 00:33:51;;;;;;;1.58;0.80;;;;;;;7.52;100.00;101266.72;6277417;28;20056;-85
2024/02/14 00:36:53;;;;;;;3.47;1.58;;;;;;;7.53;100.00;101255.34;6277340;28;20131;-85
2024/02/14 00:39:55;;;;;;;4.65;1.40;;;;;;;7.45;100.00;101263.47;6277312;28;20044;-85
2024/02/14 00:42:57;;;;;;;7.28;1.30;;;;;;;7.50;100.00;101258.94;6277303;28;20049;-84
2024/02/14 00:45:59;;;;;;;2.28;1.13;;;;;;;7.51;100.00;101255.41;6277337;28;20055;-84
2024/02/14 00:49:01;;;;;;;1.08;0.90;;;;;;;7.46;100.00;101256.47;6276751;28;20048;-84
2024/02/14 00:52:02;;;;;;;2.55;1.02;;;;;;;7.42;100.00;101245.25;6277196;28;20045;-84
2024/02/14 00:55:04;;;;;;;4.68;1.52;;;;;;;7.40;100.00;101248.78;6277069;28;20421;-85
2024/02/14 00:58:06;;;;;;;3.67;1.25;;;;;;;7.37;100.00;101248.00;6276542;28;20053;-85
2024/02/14 01:01:09;;;;;;;4.78;1.13;;;;;;;7.35;100.00;101241.09;6277162;28;20135;-85
2024/02/14 01:04:10;;;;;;;4.60;1.17;;;;;;;7.33;100.00;101235.94;6276696;28;20048;-85
2024/02/14 01:07:11;;;;;;;3.15;1.40;;;;;;;7.32;100.00;101236.84;6276942;28;20155;-85
2024/02/14 01:10:13;;;;;;;6.65;1.42;;;;;;;7.35;100.00;101230.63;6277260;28;20052;-86
2024/02/14 01:13:14;;;;;;;1.30;1.10;;;;;;;7.38;100.00;101227.94;6276962;28;20052;-85
2024/02/14 01:16:17;;;;;;;4.55;1.27;;;;;;;7.35;100.00;101222.81;6276882;28;20449;-84
2024/02/14 01:19:19;;;;;;;6.55;2.00;;;;;;;7.35;100.00;101220.19;6275851;28;20053;-84
2024/02/14 01:22:21;;;;;;;5.82;1.67;;;;;;;7.55;100.00;101216.94;6276622;28;20141;-85
2024/02/14 01:25:22;;;;;;;3.70;1.40;;;;;;;7.52;100.00;101210.03;6276804;28;20052;-86
2024/02/14 01:28:24;;;;;;;2.17;1.35;;;;;;;7.52;100.00;101214.41;6331415;22;20063;-77
2024/02/14 01:31:26;;;;;;;4.25;1.30;;;;;;;7.47;100.00;101206.72;6325783;28;20044;-76
2024/02/14 01:34:28;;;;;;;4.00;1.25;;;;;;;7.42;100.00;101197.31;6325632;28;20047;-76
2024/02/14 01:37:30;;;;;;;5.30;1.80;;;;;;;7.49;100.00;101197.06;6325249;28;20200;-77
2024/02/14 01:40:31;;;;;;;2.85;1.48;;;;;;;7.44;100.00;101198.97;6325662;28;20044;-77
2024/02/14 01:43:32;;;;;;;5.18;1.40;;;;;;;7.46;100.00;101197.16;6325166;28;20344;-77
2024/02/14 01:46:35;;;;;;;11.35;1.50;;;;;;;7.40;100.00;101194.75;6325685;28;20055;-77
2024/02/14 01:49:37;;;;;;;4.72;1.35;;;;;;;7.37;100.00;101193.09;6324910;28;20048;-77
2024/02/14 01:52:40;;;;;;;7.25;1.33;;;;;;;7.36;100.00;101183.56;6325655;28;20055;-77
2024/02/14 01:55:41;;;;;;;4.18;1.77;;;;;;;7.32;100.00;101176.72;6325060;28;20051;-77
2024/02/14 01:58:44;;;;;;;6.80;1.40;;;;;;;7.28;100.00;101171.63;6324863;28;20053;-77
2024/02/14 02:01:46;;;;;;;2.10;1.40;;;;;;;7.22;100.00;101170.09;6325186;28;20040;-77
2024/02/14 02:04:48;;;;;;;4.22;1.75;;;;;;;7.17;100.00;101163.28;6324924;28;20135;-77
2024/02/14 02:07:50;;;;;;;2.47;1.35;;;;;;;7.16;100.00;101153.72;6324693;28;20059;-78
2024/02/14 02:10:51;;;;;;;7.70;1.83;;;;;;;7.10;100.00;101154.78;6324387;28;20044;-77
2024/02/14 02:13:52;;;;;;;2.60;1.63;;;;;;;7.09;100.00;101155.69;6324968;28;20052;-77
2024/02/14 02:16:55;;;;;;;2.85;1.70;;;;;;;7.02;100.00;101149.81;6324882;28;20059;-77
2024/02/14 02:19:57;;;;;;;2.65;1.60;;;;;;;7.00;100.00;101141.16;6324367;28;20051;-78
2024/02/14 02:23:00;;;;;;;3.75;1.90;;;;;;;6.98;100.00;101142.97;6325068;28;20052;-78
2024/02/14 02:26:02;;;;;;;2.10;1.60;;;;;;;6.93;100.00;101144.88;6324803;28;20447;-78
2024/02/14 02:29:05;;;;;;;10.80;2.83;;;;;;;6.92;100.00;101139.72;6324216;28;20052;-78
2024/02/14 02:32:09;;;;;;;10.02;2.20;;;;;;;6.89;100.00;101131.94;6327768;28;20052;-78
2024/02/14 02:35:11;;;;;;;3.22;1.83;;;;;;;6.89;100.00;101129.34;6329676;28;20333;-78
2024/02/14 02:38:13;;;;;;;3.95;1.63;;;;;;;6.91;100.00;101123.19;6329386;28;20051;-78
2024/02/14 02:41:16;;;;;;;4.20;1.77;;;;;;;6.90;100.00;101117.97;6329532;28;20044;-78
2024/02/14 02:44:17;;;;;;;4.93;2.33;;;;;;;6.84;100.00;101119.88;6329465;28;20440;-78
2024/02/14 02:47:19;;;;;;;4.85;1.92;;;;;;;6.85;100.00;101118.13;6329572;28;20059;-78
2024/02/14 02:50:21;;;;;;;8.13;1.77;;;;;;;6.86;100.00;101115.50;6329797;28;20047;-78
2024/02/14 02:53:24;;;;;;;3.97;1.60;;;;;;;6.86;100.00;101118.09;6329447;28;20348;-78
2024/02/14 02:56:27;;;;;;;3.40;1.88;;;;;;;6.82;100.00;101115.63;6329423;28;20059;-77
2024/02/14 02:59:29;;;;;;;2.78;1.90;;;;;;;6.82;100.00;101105.19;6329130;28;20040;-78
2024/02/14 03:02:31;;;;;;;3.50;1.90;;;;;;;6.82;100.00;101100.81;6329398;28;20044;-78
2024/02/14 03:05:33;;;;;;;2.65;1.52;;;;;;;6.82;100.00;101095.59;6328592;28;20040;-78
2024/02/14 03:08:35;;;;;;;4.70;1.60;;;;;;;6.90;100.00;101097.94;6328080;28;20051;-78
2024/02/14 03:11:37;;;;;;;3.10;1.92;;;;;;;6.91;100.00;101091.81;6326364;28;20040;-78
2024/02/14 03:14:39;;;;;;;2.97;1.85;;;;;;;6.88;100.00;101083.22;6328207;28;20040;-77
2024/02/14 03:17:42;;;;;;;6.07;2.50;;;;;;;6.85;100.00;101074.56;6327977;28;20048;-78
2024/02/14 03:20:43;;;;;;;3.30;1.80;;;;;;;6.84;100.00;101069.41;6328159;28;20040;-78
2024/02/14 03:23:46;;;;;;;4.60;2.28;;;;;;;6.85;100.00;101063.28;6327983;28;20044;-78
2024/02/14 03:26:47;;;;;;;5.90;1.88;;;;;;;6.84;100.00;101057.19;6328094;28;20055;-77
2024/02/14 03:29:50;;;;;;;4.22;1.95;;;;;;;6.84;100.00;101053.72;6327684;28;20064;-77
2024/02/14 03:32:52;;;;;;;2.92;1.65;;;;;;;6.82;100.00;101056.41;6328028;28;20128;-78
2024/02/14 03:35:53;;;;;;;5.68;1.88;;;;;;;6.82;100.00;101051.19;6327522;28;20059;-77
2024/02/14 03:38:56;;;;;;;4.20;2.00;;;;;;;6.81;100.00;101051.22;6327434;28;20055;-77
2024/02/14 03:41:58;;;;;;;4.97;2.00;;;;;;;6.84;100.00;101053.72;6327522;28;20438;-78
2024/02/14 03:45:02;;;;;;;4.85;2.08;;;;;;;6.81;100.00;101049.47;6327275;28;20044;-78
2024/02/14 03:48:04;;;;;;;5.53;2.92;;;;;;;6.80;100.00;101046.91;6326417;28;20340;-78
2024/02/14 03:51:06;;;;;;;5.78;2.50;;;;;;;6.86;100.00;101052.78;6328007;28;20098;-77
2024/02/14 03:54:08;;;;;;;3.15;1.98;;;;;;;6.88;100.00;101042.28;6327182;28;20063;-77
2024/02/14 03:57:10;;;;;;;5.13;2.28;;;;;;;6.90;100.00;101037.00;6326156;28;20048;-78
2024/02/14 04:00:12;;;;;;;10.73;2.30;;;;;;;6.90;100.00;101037.84;6324531;28;20360;-77
2024/02/14 04:03:13;;;;;;;4.43;2.00;;;;;;;6.92;100.00;101041.28;6326671;28;20055;-77
2024/02/14 04:06:15;;;;;;;5.75;2.25;;;;;;;6.95;100.00;101035.97;6326999;28;20364;-78
2024/02/14 04:09:18;;;;;;;4.22;2.75;;;;;;;7.01;100.00;101030.50;6326380;28;20047;-77
2024/02/14 04:12:19;;;;;;;4.40;2.42;;;;;;;6.96;100.00;101027.22;6326342;28;20062;-77
2024/02/14 04:15:20;;;;;;;3.95;2.03;;;;;;;7.00;100.00;101033.19;6326446;28;20048;-77
2024/02/14 04:18:22;;;;;;;4.28;1.58;;;;;;;6.99;100.00;101028.84;6326874;28;20435;-79
2024/02/14 04:21:23;;;;;;;5.13;2.30;;;;;;;6.91;100.00;101033.50;6327114;28;20104;-77
2024/02/14 04:24:26;;;;;;;3.72;2.42;;;;;;;6.97;100.00;101030.69;6326926;28;20066;-78
2024/02/14 04:27:28;;;;;;;5.28;2.53;;;;;;;6.96;100.00;101026.34;6326346;28;20075;-78
2024/02/14 04:30:29;;;;;;;6.22;2.35;;;;;;;7.00;100.00;101033.19;6326964;28;20432;-78
2024/02/14 04:33:31;;;;;;;5.25;2.20;;;;;;;7.04;100.00;101029.53;6326206;28;20044;-78
2024/02/14 04:36:35;;;;;;;3.65;2.08;;;;;;;7.04;100.00;101027.81;6326192;28;20044;-79
2024/02/14 04:39:37;;;;;;;5.45;2.45;;;;;;;7.08;100.00;101028.53;6325778;28;20047;-78
2024/02/14 04:42:39;;;;;;;6.20;2.30;;;;;;;7.02;100.00;101032.22;6326098;28;20055;-78
2024/02/14 04:45:40;;;;;;;14.45;3.10;;;;;;;7.05;100.00;101029.50;6325643;28;20317;-79
2024/02/14 04:48:42;;;;;;;3.45;2.13;;;;;;;7.07;100.00;101032.06;6325669;28;20044;-79
2024/02/14 04:51:43;;;;;;;5.32;2.42;;;;;;;7.06;100.00;101031.22;6323528;28;20048;-79
2024/02/14 04:54:46;;;;;;;5.35;2.28;;;;;;;7.09;100.00;101022.44;6325978;28;20044;-79
2024/02/14 04:57:47;;;;;;;5.00;1.98;;;;;;;7.14;100.00;101030.09;6326114;28;20044;-78
2024/02/14 05:00:49;;;;;;;6.78;2.38;;;;;;;7.09;100.00;101019.81;6326278;28;20044;-78
2024/02/14 05:03:50;;;;;;;4.47;2.30;;;;;;;7.18;100.00;101016.03;6326179;28;20056;-78
2024/02/14 05:06:52;;;;;;;3.47;2.25;;;;;;;7.19;100.00;101015.97;6326621;28;20134;-78
2024/02/14 05:09:56;;;;;;;6.60;2.80;;;;;;;7.19;100.00;101017.72;6325811;28;20131;-78
2024/02/14 05:12:58;;;;;;;5.80;2.58;;;;;;;7.16;100.00;101025.66;6326294;28;20044;-78
2024/02/14 05:16:03;;;;;;;4.93;2.60;;;;;;;7.23;100.00;101035.88;6326265;28;20052;-78
2024/02/14 05:19:04;;;;;;;4.35;2.45;;;;;;;7.21;100.00;101021.97;6326071;28;20056;-79
2024/02/14 05:22:06;;;;;;;5.97;2.92;;;;;;;7.22;100.00;101023.72;6326139;28;20044;-79
2024/02/14 05:25:09;;;;;;;7.13;3.03;;;;;;;7.23;100.00;101024.56;6326115;28;20055;-79
2024/02/14 05:28:13;;;;;;;5.78;2.40;;;;;;;7.27;100.00;101023.53;6325341;28;20127;-79
2024/02/14 05:31:15;;;;;;;4.53;2.33;;;;;;;7.29;100.00;101019.94;6325923;28;20504;-78
2024/02/14 05:34:16;;;;;;;5.20;2.42;;;;;;;7.31;100.00;101020.78;6324770;28;20102;-79
2024/02/14 05:37:17;;;;;;;9.05;2.53;;;;;;;7.32;100.00;101006.78;6324942;28;20356;-78
2024/02/14 05:40:20;;;;;;;5.60;2.90;;;;;;;7.36;100.00;100999.69;6325607;28;20065;-78
2024/02/14 05:43:23;;;;;;;5.20;2.60;;;;;;;7.34;100.00;101001.50;6325255;28;20066;-78
2024/02/14 05:46:24;;;;;;;6.38;3.03;;;;;;;7.35;100.00;101003.19;6325786;28;20059;-79
2024/02/14 05:49:25;;;;;;;5.10;3.10;;;;;;;7.35;100.00;101000.56;6324820;28;20432;-79
2024/02/14 05:52:27;;;;;;;5.80;2.90;;;;;;;7.41;100.00;100996.91;6325609;28;20055;-79
2024/02/14 05:55:29;;;;;;;6.03;3.22;;;;;;;7.46;100.00;101000.22;6325198;28;20047;-79
2024/02/14 05:58:31;;;;;;;6.40;2.95;;;;;;;7.50;100.00;100997.44;6325368;28;20055;-79
2024/02/14 06:01:33;;;;;;;6.25;2.72;;;;;;;7.48;100.00;101001.00;6325274;28;20055;-80
2024/02/14 06:04:34;;;;;;;5.22;3.45;;;;;;;7.49;100.00;101000.94;6325530;28;20044;-79
2024/02/14 06:07:37;;;;;;;7.47;3.10;;;;;;;7.57;100.00;101001.50;6332008;28;20083;-79
2024/02/14 06:10:39;;;;;;;4.15;2.67;;;;;;;7.61;100.00;101000.47;6333037;28;20048;-80
2024/02/14 06:13:41;;;;;;;4.75;3.42;;;;;;;7.72;100.00;101004.47;6331212;28;20509;-79
2024/02/14 06:16:43;;;;;;;8.43;3.25;;;;;;;7.68;100.00;100995.91;6333451;28;20336;-80
2024/02/14 06:19:45;;;;;;;6.18;2.85;;;;;;;7.72;100.00;100997.50;6332899;28;20052;-80
2024/02/14 06:22:46;;;;;;;4.35;3.05;;;;;;;7.74;100.00;101005.28;6333237;28;20036;-79
2024/02/14 06:25:49;;;;;;;5.18;3.60;;;;;;;7.76;100.00;101008.66;6332858;28;20047;-80
2024/02/14 06:28:54;;;;;;;7.82;4.10;;;;;;;7.77;100.00;101000.78;6332830;28;20051;-80
2024/02/14 06:31:55;;;;;;;5.78;3.10;;;;;;;7.82;100.00;101005.84;6333936;28;20053;-80
2024/02/14 06:34:57;;;;;;;7.45;3.88;;;;;;;7.84;100.00;101002.25;6333008;28;20372;-78
2024/02/14 06:37:58;;;;;;;7.30;3.40;;;;;;;7.85;100.00;101008.31;6333477;28;20044;-79
2024/02/14 06:41:01;;;;;;;6.78;3.65;;;;;;;7.84;100.00;101009.25;6333633;28;20044;-77
2024/02/14 06:44:02;;;;;;;7.00;3.55;;;;;;;7.91;100.00;101018.56;6333174;28;20177;-78
2024/02/14 06:47:04;;;;;;;7.75;3.45;;;;;;;7.93;100.00;101018.50;6333367;28;20044;-78
2024/02/14 06:50:08;;;;;;;6.72;3.95;;;;;;;7.97;100.00;101026.19;6332902;28;20440;-78
2024/02/14 06:53:09;;;;;;;9.43;4.57;;;;;;;8.01;100.00;101026.94;6333365;28;20040;-78
2024/02/14 06:56:12;;;;;;;7.68;3.75;;;;;;;8.03;100.00;101032.94;6333014;28;20048;-79
2024/02/14 06:59:13;;;;;;;9.95;4.18;;;;;;;8.05;100.00;101031.97;6333066;28;20052;-79
2024/02/14 07:02:14;;;;;;;7.28;3.72;;;;;;;8.08;100.00;101036.22;6333104;28;20048;-80
2024/02/14 07:05:16;;;;;;;7.85;3.90;;;;;;;8.13;100.00;101035.16;6333202;28;20044;-80
2024/02/14 07:08:17;;;;;;;6.30;3.35;;;;;;;8.13;100.00;101045.63;6332884;28;20078;-79
2024/02/14 07:11:20;;;;;;;7.72;4.05;;;;;;;8.14;100.00;101041.25;6333427;28;20048;-78
2024/02/14 07:14:22;;;;;;;7.72;4.15;;;;;;;8.19;100.00;101041.06;6333600;28;20052;-80
2024/02/14 07:17:23;;;;;;;7.13;4.07;;;;;;;8.22;100.00;101041.81;6332324;28;20040;-80
2024/02/14 07:20:26;;;;;;;8.35;4.75;;;;;;;8.23;100.00;101040.91;6329363;28;20579;-81
2024/02/14 07:23:27;;;;;;;15.40;4.80;;;;;;;8.36;100.00;101054.38;6328919;28;20048;-80
2024/02/14 07:26:30;;;;;;;8.63;4.15;;;;;;;8.37;100.00;101051.72;6328653;28;20054;-79
2024/02/14 07:29:31;;;;;;;6.35;3.78;;;;;;;8.38;100.00;101049.94;6328394;28;20052;-78
2024/02/14 07:32:33;;;;;;;9.00;5.05;;;;;;;8.43;100.00;101052.38;6328749;28;20483;-80
2024/02/14 07:35:34;;;;;;;6.65;3.95;;;;;;;8.46;100.00;101053.13;6328815;28;20059;-78
2024/02/14 07:38:36;;;;;;;7.72;4.28;;;;;;;8.49;100.00;101058.22;6328216;28;20333;-80
2024/02/14 07:41:38;;;;;;;5.82;3.85;;;;;;;8.49;100.00;101054.75;6328966;28;20048;-79
2024/02/14 07:44:40;;;;;;;7.85;4.32;;;;;;;8.49;100.00;101052.97;6328597;28;20052;-79
2024/02/14 07:47:41;;;;;;;6.93;3.58;;;;;;;8.53;100.00;101056.34;6327774;28;20078;-79
2024/02/14 07:50:43;;;;;;;6.93;4.38;;;;;;;8.57;100.00;101060.53;6328472;28;20050;-80
2024/02/14 07:53:45;;;;;;;6.18;3.95;;;;;;;8.57;100.00;101061.38;6321155;28;20040;-80
2024/02/14 07:56:47;;;;;;;6.80;3.67;;;;;;;8.61;100.00;101059.50;6327716;28;20037;-80
2024/02/14 07:59:49;;;;;;;7.43;4.03;;;;;;;8.61;100.00;101070.81;6327147;28;20047;-79
2024/02/14 08:02:50;;;;;;;6.70;4.07;;;;;;;8.65;100.00;101063.72;6317498;28;20055;-79
2024/02/14 08:05:52;;;;;;;5.47;3.53;;;;;;;8.68;100.00;101067.97;6327220;28;20056;-79
2024/02/14 08:09:01;;;;;;;5.75;3.25;;;;;;;8.76;100.00;101073.75;6327186;28;20177;-78
2024/02/14 08:12:04;;;;;;;7.10;3.60;;;;;;;8.75;100.00;101082.53;6319174;28;20047;-78
2024/02/14 08:15:07;;;;;;;6.15;3.75;;;;;;;8.78;100.00;101077.16;6322024;28;20340;-77
2024/02/14 08:18:08;;;;;;;9.43;3.33;;;;;;;8.77;100.00;101088.56;6325843;28;20349;-77
2024/02/14 08:21:10;;;;;;;7.03;4.00;;;;;;;8.79;100.00;101084.13;6327260;28;20079;-76
2024/02/14 08:24:12;;;;;;;10.52;4.47;;;;;;;8.84;100.00;101085.63;6326917;28;20052;-78
2024/02/14 08:27:14;;;;;;;11.68;4.00;;;;;;;8.89;100.00;101083.66;6326523;28;20048;-77
2024/02/14 08:30:17;;;;;;;6.30;3.83;;;;;;;8.97;100.00;101090.38;6326830;28;20135;-78
2024/02/14 08:33:18;;;;;;;7.22;3.90;;;;;;;9.01;100.00;101091.94;6327964;28;20481;-76
2024/02/14 08:36:20;;;;;;;7.32;4.03;;;;;;;9.04;100.00;101095.31;6327652;28;20427;-78
2024/02/14 08:39:21;;;;;;;7.68;4.22;;;;;;;9.11;100.00;101101.13;6326741;28;20059;-77
2024/02/14 08:42:24;;;;;;;7.57;4.43;;;;;;;9.14;100.00;101099.25;6326629;28;20048;-76
2024/02/14 08:45:25;;;;;;;8.23;4.68;;;;;;;9.09;100.00;101093.34;6326574;28;20036;-78
2024/02/14 08:48:28;;;;;;;7.45;4.43;;;;;;;9.15;100.00;101103.56;6325750;28;20064;-75
2024/02/14 08:51:30;;;;;;;14.13;5.63;;;;;;;9.19;100.00;101103.44;6326501;28;20043;-76
2024/02/14 08:54:32;;;;;;;10.60;6.05;;;;;;;9.19;100.00;101109.53;6327929;28;20079;-76
2024/02/14 08:57:35;;;;;;;11.15;6.35;;;;;;;9.25;100.00;101105.81;6319250;28;20089;-74
2024/02/14 09:00:36;;;;;;;11.30;6.38;;;;;;;9.27;100.00;101110.09;6326626;28;20056;-76
2024/02/14 09:03:38;;;;;;;12.13;7.03;;;;;;;9.29;100.00;101107.38;6325949;28;20048;-76
2024/02/14 09:06:40;;;;;;;14.07;7.97;;;;;;;9.40;100.00;101113.00;6317629;28;20050;-76
2024/02/14 09:09:42;;;;;;;13.63;7.78;;;;;;;9.41;100.00;101122.63;6326223;28;20085;-77
2024/02/14 09:12:44;;;;;;;12.52;7.82;;;;;;;9.31;100.00;101119.53;6326751;28;20043;-77
2024/02/14 09:15:46;;;;;;;13.10;7.60;;;;;;;9.31;100.00;101126.50;6325623;28;20455;-81
2024/02/14 09:18:47;;;;;;;19.77;8.23;;;;;;;9.36;100.00;101127.19;6326484;28;20066;-78
2024/02/14 09:21:49;;;;;;;13.98;8.07;;;;;;;9.36;100.00;101124.56;6326010;28;20056;-79
2024/02/14 09:24:52;;;;;;;19.13;9.75;;;;;;;9.38;100.00;101122.72;6325414;28;20063;-77
2024/02/14 09:27:55;;;;;;;16.55;9.00;;;;;;;9.46;100.00;101120.63;6324653;28;20134;-79
2024/02/14 09:30:56;;;;;;;14.35;8.30;;;;;;;9.47;100.00;101122.34;6306813;28;20048;-79
2024/02/14 09:33:58;;;;;;;18.20;9.05;;;;;;;9.55;100.00;101128.13;6300398;28;20175;-77
2024/02/14 09:36:59;;;;;;;16.88;9.77;;;;;;;9.58;100.00;101130.63;6300435;28;20455;-79
2024/02/14 09:40:00;;;;;;;14.38;8.65;;;;;;;9.54;100.00;101131.66;6300367;28;20099;-78
2024/02/14 09:43:10;;;;;;;19.55;8.70;;;;;;;9.57;100.00;101131.50;6300079;28;20064;-78
2024/02/14 09:46:13;;;;;;;16.88;9.45;;;;;;;9.51;100.00;101141.44;6300536;28;20051;-79
2024/02/14 09:49:17;;;;;;;17.55;10.05;;;;;;;9.52;100.00;101140.50;6300049;28;20044;-80
2024/02/14 09:52:20;;;;;;;18.23;9.55;;;;;;;9.50;100.00;101147.59;6300558;28;20048;-79
2024/02/14 09:55:25;;;;;;;18.33;9.40;;;;;;;9.51;100.00;101151.94;6300018;28;20352;-80
2024/02/14 09:58:29;;;;;;;17.52;9.57;;;;;;;9.54;100.00;101157.91;6300149;28;20048;-79
2024/02/14 10:01:30;;;;;;;16.40;8.93;;;;;;;9.54;100.00;101155.28;6300449;28;20348;-80
2024/02/14 10:04:32;;;;;;;19.98;9.68;;;;;;;9.58;100.00;101155.97;6315318;28;20059;-79
2024/02/14 10:07:41;;;;;;;17.30;10.18;;;;;;;9.66;100.00;101161.75;6323903;28;20043;-81
2024/02/14 10:10:42;;;;;;;17.33;8.93;;;;;;;9.63;100.00;101161.91;6316740;28;20054;-79
2024/02/14 10:13:47;;;;;;;17.70;10.43;;;;;;;9.58;100.00;101175.22;6323909;28;20040;-79
2024/02/14 10:16:48;;;;;;;21.70;10.88;;;;;;;9.65;100.00;101173.19;6318605;28;20436;-81
2024/02/14 10:19:57;;;;;;;18.65;10.85;;;;;;;9.64;100.00;101179.34;6324540;28;20361;-81
2024/02/14 10:23:02;;;;;;;23.17;12.30;;;;;;;9.70;100.00;101172.97;6325066;28;20048;-80
2024/02/14 10:26:05;;;;;;;19.75;10.98;;;;;;;9.74;100.00;101172.78;6325409;28;20106;-79
2024/02/14 10:29:10;;;;;;;25.02;11.52;;;;;;;9.73;100.00;101173.72;6324587;28;20064;-81
2024/02/14 10:32:15;;;;;;;23.15;12.45;;;;;;;9.73;100.00;101175.47;6325197;28;20047;-80
2024/02/14 10:35:17;;;;;;;25.02;12.50;;;;;;;9.74;100.00;101182.44;6324552;28;20087;-80
2024/02/14 10:38:20;;;;;;;20.27;11.90;;;;;;;9.77;100.00;101180.53;6324521;28;20337;-80
2024/02/14 10:41:22;;;;;;;21.85;11.52;;;;;;;9.79;100.00;101180.47;6324581;28;20102;-79
2024/02/14 10:44:25;;;;;;;20.55;10.57;;;;;;;9.83;100.00;101188.13;6324740;28;20048;-81
2024/02/14 10:47:34;;;;;;;19.58;11.18;;;;;;;9.87;100.00;101178.38;6324382;28;20048;-80
2024/02/14 10:50:41;;;;;;;21.33;11.48;;;;;;;9.95;100.00;101188.50;6324797;28;20055;-81
2024/02/14 10:53:46;;;;;;;17.85;9.98;;;;;;;9.95;100.00;101189.38;6328037;28;20061;-79
2024/02/14 10:56:51;;;;;;;16.63;10.30;;;;;;;9.98;100.00;101189.22;6329219;28;20044;-79
2024/02/14 10:59:55;;;;;;;19.00;9.50;;;;;;;10.02;100.00;101193.44;6328813;28;20052;-79
2024/02/14 11:02:56;;;;;;;20.48;10.30;;;;;;;10.10;100.00;101196.59;6328055;28;20269;-79
2024/02/14 11:06:03;;;;;;;18.70;9.40;;;;;;;10.16;100.00;101196.31;6328670;28;20055;-79
2024/02/14 11:09:07;;;;;;;20.58;9.85;;;;;;;10.24;100.00;101203.88;6328717;28;20341;-79
2024/02/14 11:12:10;;;;;;;18.40;10.25;;;;;;;10.28;100.00;101201.97;6329060;28;20390;-79
2024/02/14 11:15:17;;;;;;;16.33;9.20;;;;;;;10.33;100.00;101200.00;6329258;28;20052;-80
2024/02/14 11:18:26;;;;;;;14.30;8.68;;;;;;;10.35;100.00;101196.34;6328469;28;20063;-80
2024/02/14 11:21:29;;;;;;;;;;;;;;;10.38;100.00;101208.50;6329513;28;20052;-80
2024/02/14 11:24:32;;;;;;;15.30;8.50;;;;;;;10.39;100.00;101205.81;6329012;28;19943;-80
2024/02/14 11:27:34;;;;;;;15.30;8.13;;;;;;;10.42;100.00;101210.09;6327827;28;20436;-77
2024/02/14 11:30:36;;;;;;;13.48;8.60;;;;;;;10.46;100.00;101200.28;6328718;28;20040;-79
2024/02/14 11:33:38;;;;;;;13.82;8.18;;;;;;;10.46;100.00;101201.16;6328578;28;20051;-79
2024/02/14 11:36:42;;;;;;;14.25;8.70;;;;;;;10.45;100.00;101203.84;6329621;28;20056;-80
2024/02/14 11:39:43;;;;;;;12.30;7.45;;;;;;;10.46;100.00;101206.41;6328418;28;20055;-79
2024/02/14 11:42:47;;;;;;;12.30;8.02;;;;;;;10.48;100.00;101212.44;6329252;28;20047;-80
2024/02/14 11:45:51;;;;;;;11.75;6.78;;;;;;;10.57;100.00;101219.88;6328091;28;20052;-80
2024/02/14 11:48:53;;;;;;;12.93;7.78;;;;;;;10.63;100.00;101217.00;6327889;28;20080;-78
2024/02/14 11:51:55;;;;;;;12.18;7.10;;;;;;;10.66;100.00;101211.59;6328172;28;20048;-78
2024/02/14 11:54:57;;;;;;;13.48;7.70;;;;;;;10.72;100.00;101218.34;6327895;28;20052;-81
2024/02/14 11:57:59;;;;;;;13.02;7.95;;;;;;;10.65;100.00;101228.28;6327652;28;20067;-80
2024/02/14 12:01:05;;;;;;;12.55;7.95;;;;;;;10.65;100.00;101219.53;6327815;28;20052;-79
2024/02/14 12:04:08;;;;;;;12.23;7.72;;;;;;;10.62;100.00;101228.41;6326217;28;20048;-78
2024/02/14 12:07:10;;;;;;;13.00;7.85;;;;;;;10.63;100.00;101227.50;6327598;28;20097;-81
2024/02/14 12:10:12;;;;;;;14.65;7.32;;;;;;;10.62;100.00;101232.81;6327841;28;20052;-79
2024/02/14 12:13:15;;;;;;;13.25;7.68;;;;;;;10.57;100.00;101234.81;6328355;28;20043;-80
2024/02/14 12:16:21;;;;;;;13.07;7.63;;;;;;;10.63;100.00;101230.13;6327898;28;20055;-79
2024/02/14 12:19:23;;;;;;;13.27;7.57;;;;;;;10.70;100.00;101232.47;6327459;28;20095;-79
2024/02/14 12:22:25;;;;;;;10.52;6.78;;;;;;;10.69;100.00;101229.00;6326629;28;20467;-80
2024/02/14 12:25:26;;;;;;;15.80;7.85;;;;;;;10.73;100.00;101232.34;6327208;28;20051;-79
2024/02/14 12:28:30;;;;;;;11.77;7.15;;;;;;;10.76;100.00;101225.16;6326749;28;20051;-77
2024/02/14 12:31:33;;;;;;;10.30;6.50;;;;;;;10.71;100.00;101223.66;6326982;28;20072;-76
2024/02/14 12:34:35;;;;;;;11.20;6.95;;;;;;;10.76;100.00;101222.53;6326713;28;20048;-77
2024/02/14 12:37:37;;;;;;;12.25;7.05;;;;;;;10.74;100.00;101231.41;6326450;28;20048;-78
2024/02/14 12:40:41;;;;;;;11.98;7.85;;;;;;;10.76;100.00;101225.16;6327017;28;20052;-77
2024/02/14 12:43:42;;;;;;;10.68;6.57;;;;;;;10.80;100.00;101234.59;6325753;28;20420;-79
2024/02/14 12:46:45;;;;;;;16.85;7.47;;;;;;;10.87;100.00;101233.41;6325967;28;20055;-80
2024/02/14 12:49:47;;;;;;;10.60;6.90;;;;;;;10.96;100.00;101224.22;6325779;28;20125;-80
2024/02/14 12:52:49;;;;;;;12.32;7.70;;;;;;;11.04;100.00;101223.88;6326632;28;20439;-78
2024/02/14 12:55:50;;;;;;;12.32;6.50;;;;;;;11.07;100.00;101227.19;6326469;28;20128;-78
2024/02/14 12:58:52;;;;;;;11.98;7.80;;;;;;;11.18;100.00;101230.19;6326107;28;20048;-78
2024/02/14 13:01:54;;;;;;;10.73;6.88;;;;;;;11.14;100.00;101223.34;6326114;28;20048;-81
2024/02/14 13:04:56;;;;;;;12.50;7.60;;;;;;;11.11;100.00;101233.16;6316238;28;20055;-79
2024/02/14 13:07:57;;;;;;;10.65;7.00;;;;;;;11.08;100.00;101226.28;6324998;28;20071;-78
2024/02/14 13:10:58;;;;;;;11.20;7.43;;;;;;;11.11;100.00;101227.91;6325050;28;20044;-79
2024/02/14 13:14:00;;;;;;;14.65;7.97;;;;;;;11.21;100.00;101229.16;6318500;28;20051;-78
2024/02/14 13:17:04;;;;;;;12.02;7.70;;;;;;;11.17;100.00;101241.63;6325694;28;20408;-79
2024/02/14 13:20:08;;;;;;;13.13;8.10;;;;;;;11.20;100.00;101234.50;6323868;28;20048;-80
2024/02/14 13:23:09;;;;;;;12.27;7.97;;;;;;;11.16;100.00;101226.75;6320527;28;20036;-80
2024/02/14 13:26:10;;;;;;;11.80;7.57;;;;;;;11.13;100.00;101226.91;6325966;28;20048;-80
2024/02/14 13:29:12;;;;;;;10.95;7.53;;;;;;;11.15;100.00;101232.09;6324304;28;20055;-80
2024/02/14 13:32:14;;;;;;;11.55;7.90;;;;;;;11.18;100.00;101232.81;6325050;28;20044;-81
2024/02/14 13:35:16;;;;;;;12.52;8.02;;;;;;;11.12;100.00;101234.88;6324352;28;20055;-80
2024/02/14 13:38:17;;;;;;;10.95;7.47;;;;;;;11.12;100.00;101235.72;6324843;28;20044;-80
2024/02/14 13:41:19;;;;;;;12.15;7.90;;;;;;;11.22;100.00;101238.78;6327011;28;20055;-79
2024/02/14 13:44:20;;;;;;;13.05;7.72;;;;;;;11.29;100.00;101239.31;6326743;28;20036;-79
2024/02/14 13:47:24;;;;;;;12.02;7.80;;;;;;;11.29;100.00;101223.53;6321201;28;20040;-79
2024/02/14 13:50:25;;;;;;;12.20;7.38;;;;;;;11.29;100.00;101234.06;6324031;28;20047;-79
2024/02/14 13:53:27;;;;;;;11.02;7.00;;;;;;;11.28;100.00;101227.94;6324571;28;20044;-79
2024/02/14 13:56:28;;;;;;;13.85;7.57;;;;;;;11.27;100.00;101234.16;6323982;28;20428;-80
2024/02/14 13:59:29;;;;;;;11.98;7.45;;;;;;;11.28;100.00;101237.63;6324143;28;20051;-79